sensor_id;sensor_type;location;lat;lon;timestamp;P1;durP1;ratioP1;P2;durP2;ratioP2
77524;SDS011;66638;50.050;21.124;2024-01-15T00:01:08;5.60;;;3.10;;
77524;SDS011;66638;50.050;21.124;2024-01-15T00:03:54;7.10;;;4.10;;
77524;SDS011;66638;50.050;21.124;2024-01-15T00:06:40;5.70;;;2.80;;
77524;SDS011;66638;50.050;21.124;2024-01-15T00:09:26;3.80;;;1.90;;
77524;SDS011;66638;50.050;21.124;2024-01-15T00:12:13;6.20;;;2.80;;
77524;SDS011;66638;50.050;21.124;2024-01-15T00:14:59;4.20;;;2.80;;
77524;SDS011;66638;50.050;21.124;2024-01-15T00:17:45;6.10;;;3.20;;
77524;SDS011;66638;50.050;21.124;2024-01-15T00:20:31;5.30;;;3.00;;
77524;SDS011;66638;50.050;21.124;2024-01-15T00:23:17;3.30;;;2.40;;
77524;SDS011;66638;50.050;21.124;2024-01-15T00:26:03;5.70;;;3.90;;
77524;SDS011;66638;50.050;21.124;2024-01-15T00:28:49;3.30;;;2.00;;
77524;SDS011;66638;50.050;21.124;2024-01-15T00:31:35;5.70;;;3.30;;
77524;SDS011;66638;50.050;21.124;2024-01-15T00:34:21;3.80;;;2.10;;
77524;SDS011;66638;50.050;21.124;2024-01-15T00:37:07;6.20;;;2.90;;
77524;SDS011;66638;50.050;21.124;2024-01-15T00:39:53;5.00;;;2.70;;
77524;SDS011;66638;50.050;21.124;2024-01-15T00:42:39;4.50;;;2.80;;
77524;SDS011;66638;50.050;21.124;2024-01-15T00:45:25;5.70;;;3.70;;
77524;SDS011;66638;50.050;21.124;2024-01-15T00:48:11;5.40;;;3.20;;
77524;SDS011;66638;50.050;21.124;2024-01-15T00:50:57;4.90;;;3.10;;
77524;SDS011;66638;50.050;21.124;2024-01-15T00:53:42;5.60;;;2.60;;
77524;SDS011;66638;50.050;21.124;2024-01-15T00:56:28;6.50;;;3.80;;
77524;SDS011;66638;50.050;21.124;2024-01-15T00:59:14;6.40;;;3.00;;
77524;SDS011;66638;50.050;21.124;2024-01-15T01:02:00;5.80;;;2.80;;
77524;SDS011;66638;50.050;21.124;2024-01-15T01:04:46;3.30;;;2.00;;
77524;SDS011;66638;50.050;21.124;2024-01-15T01:07:32;5.80;;;3.20;;
77524;SDS011;66638;50.050;21.124;2024-01-15T01:10:17;4.60;;;2.70;;
77524;SDS011;66638;50.050;21.124;2024-01-15T01:13:03;4.80;;;2.50;;
77524;SDS011;66638;50.050;21.124;2024-01-15T01:15:49;4.60;;;2.20;;
77524;SDS011;66638;50.050;21.124;2024-01-15T01:18:35;4.40;;;2.60;;
77524;SDS011;66638;50.050;21.124;2024-01-15T01:21:21;5.40;;;2.80;;
77524;SDS011;66638;50.050;21.124;2024-01-15T01:24:07;4.90;;;2.10;;
77524;SDS011;66638;50.050;21.124;2024-01-15T01:26:53;4.70;;;2.40;;
77524;SDS011;66638;50.050;21.124;2024-01-15T01:29:39;3.60;;;2.50;;
77524;SDS011;66638;50.050;21.124;2024-01-15T01:32:25;4.50;;;2.30;;
77524;SDS011;66638;50.050;21.124;2024-01-15T01:35:10;4.00;;;2.20;;
77524;SDS011;66638;50.050;21.124;2024-01-15T01:37:58;5.50;;;3.30;;
77524;SDS011;66638;50.050;21.124;2024-01-15T01:40:44;4.70;;;2.10;;
77524;SDS011;66638;50.050;21.124;2024-01-15T01:43:30;5.80;;;2.70;;
77524;SDS011;66638;50.050;21.124;2024-01-15T01:46:15;4.60;;;2.30;;
77524;SDS011;66638;50.050;21.124;2024-01-15T01:49:01;3.10;;;1.70;;
77524;SDS011;66638;50.050;21.124;2024-01-15T01:51:51;2.90;;;1.70;;
77524;SDS011;66638;50.050;21.124;2024-01-15T01:54:37;4.00;;;1.90;;
77524;SDS011;66638;50.050;21.124;2024-01-15T01:57:23;5.00;;;2.50;;
77524;SDS011;66638;50.050;21.124;2024-01-15T02:00:09;4.20;;;1.90;;
77524;SDS011;66638;50.050;21.124;2024-01-15T02:02:59;5.20;;;2.00;;
77524;SDS011;66638;50.050;21.124;2024-01-15T02:05:45;3.20;;;1.90;;
77524;SDS011;66638;50.050;21.124;2024-01-15T02:08:34;2.80;;;1.60;;
77524;SDS011;66638;50.050;21.124;2024-01-15T02:11:20;3.50;;;1.80;;
77524;SDS011;66638;50.050;21.124;2024-01-15T02:14:06;4.10;;;2.40;;
77524;SDS011;66638;50.050;21.124;2024-01-15T02:16:52;2.80;;;2.00;;
77524;SDS011;66638;50.050;21.124;2024-01-15T02:19:38;4.70;;;1.60;;
77524;SDS011;66638;50.050;21.124;2024-01-15T02:22:26;5.00;;;2.50;;
77524;SDS011;66638;50.050;21.124;2024-01-15T02:25:12;3.20;;;2.10;;
77524;SDS011;66638;50.050;21.124;2024-01-15T02:27:57;4.20;;;2.20;;
77524;SDS011;66638;50.050;21.124;2024-01-15T02:30:44;4.60;;;2.70;;
77524;SDS011;66638;50.050;21.124;2024-01-15T02:33:30;4.80;;;2.20;;
77524;SDS011;66638;50.050;21.124;2024-01-15T02:36:16;3.30;;;1.90;;
77524;SDS011;66638;50.050;21.124;2024-01-15T02:39:01;4.10;;;2.60;;
77524;SDS011;66638;50.050;21.124;2024-01-15T02:41:47;4.50;;;2.20;;
77524;SDS011;66638;50.050;21.124;2024-01-15T02:44:33;4.40;;;2.70;;
77524;SDS011;66638;50.050;21.124;2024-01-15T02:47:19;4.90;;;2.50;;
77524;SDS011;66638;50.050;21.124;2024-01-15T02:50:04;4.80;;;2.40;;
77524;SDS011;66638;50.050;21.124;2024-01-15T02:52:51;3.10;;;1.70;;
77524;SDS011;66638;50.050;21.124;2024-01-15T02:55:37;4.60;;;2.70;;
77524;SDS011;66638;50.050;21.124;2024-01-15T02:58:22;3.80;;;2.00;;
77524;SDS011;66638;50.050;21.124;2024-01-15T03:01:08;4.70;;;2.30;;
77524;SDS011;66638;50.050;21.124;2024-01-15T03:03:54;4.00;;;2.10;;
77524;SDS011;66638;50.050;21.124;2024-01-15T03:06:41;3.50;;;2.10;;
77524;SDS011;66638;50.050;21.124;2024-01-15T03:09:26;4.20;;;2.30;;
77524;SDS011;66638;50.050;21.124;2024-01-15T03:12:13;4.20;;;2.40;;
77524;SDS011;66638;50.050;21.124;2024-01-15T03:14:59;3.90;;;2.20;;
77524;SDS011;66638;50.050;21.124;2024-01-15T03:17:45;4.30;;;2.40;;
77524;SDS011;66638;50.050;21.124;2024-01-15T03:20:31;3.90;;;2.20;;
77524;SDS011;66638;50.050;21.124;2024-01-15T03:23:17;4.50;;;2.40;;
77524;SDS011;66638;50.050;21.124;2024-01-15T03:26:03;2.80;;;1.80;;
77524;SDS011;66638;50.050;21.124;2024-01-15T03:28:49;5.10;;;2.70;;
77524;SDS011;66638;50.050;21.124;2024-01-15T03:31:35;3.20;;;1.80;;
77524;SDS011;66638;50.050;21.124;2024-01-15T03:34:21;6.60;;;3.10;;
77524;SDS011;66638;50.050;21.124;2024-01-15T03:37:07;3.40;;;1.70;;
77524;SDS011;66638;50.050;21.124;2024-01-15T03:39:52;4.40;;;2.90;;
77524;SDS011;66638;50.050;21.124;2024-01-15T03:42:38;3.10;;;2.00;;
77524;SDS011;66638;50.050;21.124;2024-01-15T03:45:24;5.50;;;3.20;;
77524;SDS011;66638;50.050;21.124;2024-01-15T03:48:10;4.70;;;2.80;;
77524;SDS011;66638;50.050;21.124;2024-01-15T03:50:56;3.70;;;2.20;;
77524;SDS011;66638;50.050;21.124;2024-01-15T03:53:41;6.00;;;2.80;;
77524;SDS011;66638;50.050;21.124;2024-01-15T03:56:28;4.40;;;2.00;;
77524;SDS011;66638;50.050;21.124;2024-01-15T03:59:13;3.80;;;2.10;;
77524;SDS011;66638;50.050;21.124;2024-01-15T04:02:00;3.30;;;1.80;;
77524;SDS011;66638;50.050;21.124;2024-01-15T04:04:45;6.00;;;3.50;;
77524;SDS011;66638;50.050;21.124;2024-01-15T04:07:31;3.40;;;2.20;;
77524;SDS011;66638;50.050;21.124;2024-01-15T04:10:17;4.40;;;2.30;;
77524;SDS011;66638;50.050;21.124;2024-01-15T04:13:03;2.80;;;1.80;;
77524;SDS011;66638;50.050;21.124;2024-01-15T04:15:49;6.10;;;2.50;;
77524;SDS011;66638;50.050;21.124;2024-01-15T04:18:36;2.70;;;1.60;;
77524;SDS011;66638;50.050;21.124;2024-01-15T04:21:22;4.40;;;2.10;;
77524;SDS011;66638;50.050;21.124;2024-01-15T04:24:07;4.00;;;1.70;;
77524;SDS011;66638;50.050;21.124;2024-01-15T04:26:54;4.30;;;2.10;;
77524;SDS011;66638;50.050;21.124;2024-01-15T04:29:39;5.10;;;1.90;;
77524;SDS011;66638;50.050;21.124;2024-01-15T04:32:25;4.60;;;2.20;;
77524;SDS011;66638;50.050;21.124;2024-01-15T04:35:11;3.60;;;2.20;;
77524;SDS011;66638;50.050;21.124;2024-01-15T04:37:58;3.60;;;1.80;;
77524;SDS011;66638;50.050;21.124;2024-01-15T04:40:44;3.60;;;2.20;;
77524;SDS011;66638;50.050;21.124;2024-01-15T04:43:30;2.20;;;1.40;;
77524;SDS011;66638;50.050;21.124;2024-01-15T04:46:15;3.40;;;1.50;;
77524;SDS011;66638;50.050;21.124;2024-01-15T04:49:01;2.80;;;1.50;;
77524;SDS011;66638;50.050;21.124;2024-01-15T04:51:47;3.10;;;1.80;;
77524;SDS011;66638;50.050;21.124;2024-01-15T04:54:32;3.70;;;2.10;;
77524;SDS011;66638;50.050;21.124;2024-01-15T04:57:18;2.60;;;1.90;;
77524;SDS011;66638;50.050;21.124;2024-01-15T05:00:04;3.50;;;2.00;;
77524;SDS011;66638;50.050;21.124;2024-01-15T05:02:51;3.00;;;1.70;;
77524;SDS011;66638;50.050;21.124;2024-01-15T05:05:37;3.60;;;1.90;;
77524;SDS011;66638;50.050;21.124;2024-01-15T05:08:24;2.70;;;1.50;;
77524;SDS011;66638;50.050;21.124;2024-01-15T05:11:10;3.00;;;1.50;;
77524;SDS011;66638;50.050;21.124;2024-01-15T05:13:55;2.90;;;1.70;;
77524;SDS011;66638;50.050;21.124;2024-01-15T05:16:48;3.60;;;2.00;;
77524;SDS011;66638;50.050;21.124;2024-01-15T05:19:35;3.30;;;1.80;;
77524;SDS011;66638;50.050;21.124;2024-01-15T05:22:20;2.20;;;1.50;;
77524;SDS011;66638;50.050;21.124;2024-01-15T05:25:07;4.60;;;2.30;;
77524;SDS011;66638;50.050;21.124;2024-01-15T05:27:52;2.40;;;1.40;;
77524;SDS011;66638;50.050;21.124;2024-01-15T05:30:38;3.40;;;1.70;;
77524;SDS011;66638;50.050;21.124;2024-01-15T05:33:24;3.60;;;2.00;;
77524;SDS011;66638;50.050;21.124;2024-01-15T05:36:10;3.70;;;2.70;;
77524;SDS011;66638;50.050;21.124;2024-01-15T05:38:56;3.20;;;1.40;;
77524;SDS011;66638;50.050;21.124;2024-01-15T05:41:42;3.70;;;2.20;;
77524;SDS011;66638;50.050;21.124;2024-01-15T05:44:28;3.80;;;1.70;;
77524;SDS011;66638;50.050;21.124;2024-01-15T05:47:14;2.50;;;1.30;;
77524;SDS011;66638;50.050;21.124;2024-01-15T05:50:00;4.00;;;1.90;;
77524;SDS011;66638;50.050;21.124;2024-01-15T05:52:47;3.10;;;1.90;;
77524;SDS011;66638;50.050;21.124;2024-01-15T05:55:33;4.10;;;2.10;;
77524;SDS011;66638;50.050;21.124;2024-01-15T05:58:23;3.30;;;1.80;;
77524;SDS011;66638;50.050;21.124;2024-01-15T06:01:09;4.00;;;1.90;;
77524;SDS011;66638;50.050;21.124;2024-01-15T06:03:55;4.90;;;2.70;;
77524;SDS011;66638;50.050;21.124;2024-01-15T06:06:41;6.90;;;2.70;;
77524;SDS011;66638;50.050;21.124;2024-01-15T06:09:27;5.60;;;2.40;;
77524;SDS011;66638;50.050;21.124;2024-01-15T06:15:00;4.30;;;2.40;;
77524;SDS011;66638;50.050;21.124;2024-01-15T06:17:46;2.90;;;1.60;;
77524;SDS011;66638;50.050;21.124;2024-01-15T06:20:32;4.30;;;2.10;;
77524;SDS011;66638;50.050;21.124;2024-01-15T06:23:20;2.80;;;1.60;;
77524;SDS011;66638;50.050;21.124;2024-01-15T06:26:06;4.30;;;2.30;;
77524;SDS011;66638;50.050;21.124;2024-01-15T06:28:52;3.70;;;2.30;;
77524;SDS011;66638;50.050;21.124;2024-01-15T06:31:38;4.80;;;2.30;;
77524;SDS011;66638;50.050;21.124;2024-01-15T06:34:28;5.40;;;2.50;;
77524;SDS011;66638;50.050;21.124;2024-01-15T06:37:14;1.90;;;1.50;;
77524;SDS011;66638;50.050;21.124;2024-01-15T06:39:59;2.70;;;1.70;;
77524;SDS011;66638;50.050;21.124;2024-01-15T06:42:45;4.20;;;2.70;;
77524;SDS011;66638;50.050;21.124;2024-01-15T06:45:31;2.90;;;1.90;;
77524;SDS011;66638;50.050;21.124;2024-01-15T06:48:17;4.10;;;2.10;;
77524;SDS011;66638;50.050;21.124;2024-01-15T06:51:02;4.00;;;2.00;;
77524;SDS011;66638;50.050;21.124;2024-01-15T06:53:51;4.10;;;2.00;;
77524;SDS011;66638;50.050;21.124;2024-01-15T06:56:41;2.80;;;1.60;;
77524;SDS011;66638;50.050;21.124;2024-01-15T06:59:27;4.10;;;2.40;;
77524;SDS011;66638;50.050;21.124;2024-01-15T07:02:13;3.60;;;1.90;;
77524;SDS011;66638;50.050;21.124;2024-01-15T07:05:02;4.80;;;2.10;;
77524;SDS011;66638;50.050;21.124;2024-01-15T07:07:51;4.30;;;2.20;;
77524;SDS011;66638;50.050;21.124;2024-01-15T07:10:51;6.00;;;2.30;;
77524;SDS011;66638;50.050;21.124;2024-01-15T07:16:23;6.80;;;2.10;;
77524;SDS011;66638;50.050;21.124;2024-01-15T07:19:09;4.80;;;2.90;;
77524;SDS011;66638;50.050;21.124;2024-01-15T07:21:55;3.80;;;2.40;;
77524;SDS011;66638;50.050;21.124;2024-01-15T07:24:41;4.80;;;3.50;;
77524;SDS011;66638;50.050;21.124;2024-01-15T07:27:27;5.20;;;3.00;;
77524;SDS011;66638;50.050;21.124;2024-01-15T07:30:13;3.60;;;2.20;;
77524;SDS011;66638;50.050;21.124;2024-01-15T07:32:59;5.40;;;2.80;;
77524;SDS011;66638;50.050;21.124;2024-01-15T07:35:44;3.80;;;2.50;;
77524;SDS011;66638;50.050;21.124;2024-01-15T07:38:30;5.70;;;2.60;;
77524;SDS011;66638;50.050;21.124;2024-01-15T07:41:16;4.90;;;2.50;;
77524;SDS011;66638;50.050;21.124;2024-01-15T07:44:02;5.20;;;2.40;;
77524;SDS011;66638;50.050;21.124;2024-01-15T07:46:49;5.90;;;2.70;;
77524;SDS011;66638;50.050;21.124;2024-01-15T07:49:35;4.20;;;2.70;;
77524;SDS011;66638;50.050;21.124;2024-01-15T07:52:21;4.40;;;2.00;;
77524;SDS011;66638;50.050;21.124;2024-01-15T07:55:07;5.70;;;2.30;;
77524;SDS011;66638;50.050;21.124;2024-01-15T07:57:53;4.30;;;2.30;;
77524;SDS011;66638;50.050;21.124;2024-01-15T08:00:44;6.90;;;3.00;;
77524;SDS011;66638;50.050;21.124;2024-01-15T08:03:31;5.50;;;3.10;;
77524;SDS011;66638;50.050;21.124;2024-01-15T08:06:17;6.60;;;3.60;;
77524;SDS011;66638;50.050;21.124;2024-01-15T08:09:03;5.80;;;3.10;;
77524;SDS011;66638;50.050;21.124;2024-01-15T08:11:49;12.50;;;5.60;;
77524;SDS011;66638;50.050;21.124;2024-01-15T08:14:35;10.80;;;5.60;;
77524;SDS011;66638;50.050;21.124;2024-01-15T08:17:20;5.70;;;3.10;;
77524;SDS011;66638;50.050;21.124;2024-01-15T08:20:07;9.30;;;4.60;;
77524;SDS011;66638;50.050;21.124;2024-01-15T08:22:54;15.00;;;6.70;;
77524;SDS011;66638;50.050;21.124;2024-01-15T08:25:39;7.20;;;3.90;;
77524;SDS011;66638;50.050;21.124;2024-01-15T08:28:25;6.80;;;3.40;;
77524;SDS011;66638;50.050;21.124;2024-01-15T08:31:12;7.10;;;4.20;;
77524;SDS011;66638;50.050;21.124;2024-01-15T08:33:58;9.80;;;4.20;;
77524;SDS011;66638;50.050;21.124;2024-01-15T08:36:45;7.30;;;3.60;;
77524;SDS011;66638;50.050;21.124;2024-01-15T08:39:31;7.50;;;4.20;;
77524;SDS011;66638;50.050;21.124;2024-01-15T08:42:17;8.70;;;4.80;;
77524;SDS011;66638;50.050;21.124;2024-01-15T08:45:03;7.80;;;4.00;;
77524;SDS011;66638;50.050;21.124;2024-01-15T08:47:49;10.70;;;5.30;;
77524;SDS011;66638;50.050;21.124;2024-01-15T08:50:35;6.40;;;3.90;;
77524;SDS011;66638;50.050;21.124;2024-01-15T08:53:21;7.50;;;3.70;;
77524;SDS011;66638;50.050;21.124;2024-01-15T08:56:07;8.20;;;4.30;;
77524;SDS011;66638;50.050;21.124;2024-01-15T08:58:54;8.60;;;4.60;;
77524;SDS011;66638;50.050;21.124;2024-01-15T09:01:40;7.80;;;4.10;;
77524;SDS011;66638;50.050;21.124;2024-01-15T09:04:27;10.50;;;5.70;;
77524;SDS011;66638;50.050;21.124;2024-01-15T09:07:12;10.50;;;5.40;;
77524;SDS011;66638;50.050;21.124;2024-01-15T09:09:58;8.60;;;4.20;;
77524;SDS011;66638;50.050;21.124;2024-01-15T09:12:45;6.80;;;3.70;;
77524;SDS011;66638;50.050;21.124;2024-01-15T09:15:31;12.70;;;6.20;;
77524;SDS011;66638;50.050;21.124;2024-01-15T09:18:18;7.10;;;3.60;;
77524;SDS011;66638;50.050;21.124;2024-01-15T09:21:03;7.60;;;4.50;;
77524;SDS011;66638;50.050;21.124;2024-01-15T09:23:50;9.60;;;5.40;;
77524;SDS011;66638;50.050;21.124;2024-01-15T09:26:36;9.50;;;5.50;;
77524;SDS011;66638;50.050;21.124;2024-01-15T09:29:22;11.40;;;6.40;;
77524;SDS011;66638;50.050;21.124;2024-01-15T09:32:09;8.70;;;4.20;;
77524;SDS011;66638;50.050;21.124;2024-01-15T09:34:55;8.30;;;4.90;;
77524;SDS011;66638;50.050;21.124;2024-01-15T09:37:41;6.40;;;4.30;;
77524;SDS011;66638;50.050;21.124;2024-01-15T09:40:29;6.10;;;4.00;;
77524;SDS011;66638;50.050;21.124;2024-01-15T09:43:18;22.10;;;6.90;;
77524;SDS011;66638;50.050;21.124;2024-01-15T09:46:04;12.90;;;5.40;;
77524;SDS011;66638;50.050;21.124;2024-01-15T09:48:50;16.20;;;5.70;;
77524;SDS011;66638;50.050;21.124;2024-01-15T09:51:35;17.40;;;5.50;;
77524;SDS011;66638;50.050;21.124;2024-01-15T09:54:22;10.90;;;4.50;;
77524;SDS011;66638;50.050;21.124;2024-01-15T09:57:08;13.20;;;4.30;;
77524;SDS011;66638;50.050;21.124;2024-01-15T09:59:54;17.90;;;6.60;;
77524;SDS011;66638;50.050;21.124;2024-01-15T10:02:43;9.70;;;4.30;;
77524;SDS011;66638;50.050;21.124;2024-01-15T10:05:29;17.70;;;6.20;;
77524;SDS011;66638;50.050;21.124;2024-01-15T10:08:15;12.40;;;8.40;;
77524;SDS011;66638;50.050;21.124;2024-01-15T10:11:01;13.00;;;6.70;;
77524;SDS011;66638;50.050;21.124;2024-01-15T10:13:50;14.90;;;8.70;;
77524;SDS011;66638;50.050;21.124;2024-01-15T10:16:41;6.90;;;5.10;;
77524;SDS011;66638;50.050;21.124;2024-01-15T10:19:27;11.50;;;8.70;;
77524;SDS011;66638;50.050;21.124;2024-01-15T10:22:14;6.30;;;5.50;;
77524;SDS011;66638;50.050;21.124;2024-01-15T10:25:01;6.50;;;5.40;;
77524;SDS011;66638;50.050;21.124;2024-01-15T10:30:37;7.10;;;6.40;;
77524;SDS011;66638;50.050;21.124;2024-01-15T10:33:23;12.90;;;11.40;;
77524;SDS011;66638;50.050;21.124;2024-01-15T10:36:11;57.10;;;43.40;;
77524;SDS011;66638;50.050;21.124;2024-01-15T10:38:57;67.00;;;51.60;;
77524;SDS011;66638;50.050;21.124;2024-01-15T10:41:43;20.10;;;17.90;;
77524;SDS011;66638;50.050;21.124;2024-01-15T10:44:30;8.00;;;6.60;;
77524;SDS011;66638;50.050;21.124;2024-01-15T10:47:16;8.60;;;6.90;;
77524;SDS011;66638;50.050;21.124;2024-01-15T10:50:02;7.00;;;6.20;;
77524;SDS011;66638;50.050;21.124;2024-01-15T10:52:48;10.10;;;7.70;;
77524;SDS011;66638;50.050;21.124;2024-01-15T10:55:35;18.40;;;12.40;;
77524;SDS011;66638;50.050;21.124;2024-01-15T10:58:23;7.40;;;6.40;;
77524;SDS011;66638;50.050;21.124;2024-01-15T11:01:10;8.30;;;7.10;;
77524;SDS011;66638;50.050;21.124;2024-01-15T11:03:57;40.30;;;30.10;;
77524;SDS011;66638;50.050;21.124;2024-01-15T11:06:44;18.20;;;14.70;;
77524;SDS011;66638;50.050;21.124;2024-01-15T11:09:31;9.60;;;7.90;;
77524;SDS011;66638;50.050;21.124;2024-01-15T11:12:17;14.50;;;10.80;;
77524;SDS011;66638;50.050;21.124;2024-01-15T11:15:05;10.10;;;8.00;;
77524;SDS011;66638;50.050;21.124;2024-01-15T11:17:57;7.30;;;5.70;;
77524;SDS011;66638;50.050;21.124;2024-01-15T11:23:55;8.20;;;5.10;;
77524;SDS011;66638;50.050;21.124;2024-01-15T11:26:44;7.50;;;5.50;;
77524;SDS011;66638;50.050;21.124;2024-01-15T11:29:33;7.40;;;6.10;;
77524;SDS011;66638;50.050;21.124;2024-01-15T11:32:21;8.40;;;6.40;;
77524;SDS011;66638;50.050;21.124;2024-01-15T11:35:19;9.00;;;5.50;;
77524;SDS011;66638;50.050;21.124;2024-01-15T11:38:05;7.70;;;5.90;;
77524;SDS011;66638;50.050;21.124;2024-01-15T11:40:52;8.60;;;5.60;;
77524;SDS011;66638;50.050;21.124;2024-01-15T11:43:38;9.80;;;6.20;;
77524;SDS011;66638;50.050;21.124;2024-01-15T11:46:24;7.20;;;5.50;;
77524;SDS011;66638;50.050;21.124;2024-01-15T11:49:12;8.40;;;6.00;;
77524;SDS011;66638;50.050;21.124;2024-01-15T11:52:10;6.20;;;4.40;;
77524;SDS011;66638;50.050;21.124;2024-01-15T11:55:01;8.50;;;6.00;;
77524;SDS011;66638;50.050;21.124;2024-01-15T11:57:53;10.20;;;6.30;;
77524;SDS011;66638;50.050;21.124;2024-01-15T12:03:31;8.50;;;6.50;;
77524;SDS011;66638;50.050;21.124;2024-01-15T12:06:19;11.00;;;7.50;;
77524;SDS011;66638;50.050;21.124;2024-01-15T12:09:05;9.40;;;6.10;;
77524;SDS011;66638;50.050;21.124;2024-01-15T12:11:54;7.90;;;4.40;;
77524;SDS011;66638;50.050;21.124;2024-01-15T12:14:50;10.20;;;6.50;;
77524;SDS011;66638;50.050;21.124;2024-01-15T12:17:36;10.20;;;6.10;;
77524;SDS011;66638;50.050;21.124;2024-01-15T12:20:23;7.70;;;4.70;;
77524;SDS011;66638;50.050;21.124;2024-01-15T12:23:09;8.70;;;6.20;;
77524;SDS011;66638;50.050;21.124;2024-01-15T12:25:57;9.90;;;7.30;;
77524;SDS011;66638;50.050;21.124;2024-01-15T12:28:42;9.00;;;5.70;;
77524;SDS011;66638;50.050;21.124;2024-01-15T12:31:29;8.20;;;5.30;;
77524;SDS011;66638;50.050;21.124;2024-01-15T12:34:16;10.50;;;6.80;;
77524;SDS011;66638;50.050;21.124;2024-01-15T12:37:03;8.70;;;5.40;;
77524;SDS011;66638;50.050;21.124;2024-01-15T12:39:49;8.70;;;5.90;;
77524;SDS011;66638;50.050;21.124;2024-01-15T12:42:36;13.70;;;7.00;;
77524;SDS011;66638;50.050;21.124;2024-01-15T12:45:23;13.20;;;8.30;;
77524;SDS011;66638;50.050;21.124;2024-01-15T12:48:09;11.10;;;6.40;;
77524;SDS011;66638;50.050;21.124;2024-01-15T12:50:55;9.90;;;5.30;;
77524;SDS011;66638;50.050;21.124;2024-01-15T12:53:41;18.10;;;10.60;;
77524;SDS011;66638;50.050;21.124;2024-01-15T12:56:28;11.80;;;7.70;;
77524;SDS011;66638;50.050;21.124;2024-01-15T12:59:13;8.90;;;4.40;;
77524;SDS011;66638;50.050;21.124;2024-01-15T13:01:59;9.10;;;5.60;;
77524;SDS011;66638;50.050;21.124;2024-01-15T13:04:45;9.60;;;6.20;;
77524;SDS011;66638;50.050;21.124;2024-01-15T13:07:30;10.30;;;6.00;;
77524;SDS011;66638;50.050;21.124;2024-01-15T13:10:18;9.60;;;6.10;;
77524;SDS011;66638;50.050;21.124;2024-01-15T13:13:04;10.20;;;6.00;;
77524;SDS011;66638;50.050;21.124;2024-01-15T13:15:51;9.80;;;5.60;;
77524;SDS011;66638;50.050;21.124;2024-01-15T13:18:36;10.70;;;6.70;;
77524;SDS011;66638;50.050;21.124;2024-01-15T13:21:22;11.50;;;7.20;;
77524;SDS011;66638;50.050;21.124;2024-01-15T13:24:08;10.00;;;5.90;;
77524;SDS011;66638;50.050;21.124;2024-01-15T13:26:54;13.20;;;5.70;;
77524;SDS011;66638;50.050;21.124;2024-01-15T13:29:40;12.00;;;6.70;;
77524;SDS011;66638;50.050;21.124;2024-01-15T13:32:27;12.80;;;5.60;;
77524;SDS011;66638;50.050;21.124;2024-01-15T13:35:14;14.50;;;6.70;;
77524;SDS011;66638;50.050;21.124;2024-01-15T13:38:00;14.20;;;6.80;;
77524;SDS011;66638;50.050;21.124;2024-01-15T13:40:46;9.20;;;4.60;;
77524;SDS011;66638;50.050;21.124;2024-01-15T13:43:32;11.30;;;5.30;;
77524;SDS011;66638;50.050;21.124;2024-01-15T13:46:18;9.30;;;5.30;;
77524;SDS011;66638;50.050;21.124;2024-01-15T13:49:05;9.80;;;6.20;;
77524;SDS011;66638;50.050;21.124;2024-01-15T13:51:55;12.20;;;6.90;;
77524;SDS011;66638;50.050;21.124;2024-01-15T13:54:41;8.90;;;5.70;;
77524;SDS011;66638;50.050;21.124;2024-01-15T13:57:28;14.20;;;7.00;;
77524;SDS011;66638;50.050;21.124;2024-01-15T14:00:14;9.00;;;5.20;;
77524;SDS011;66638;50.050;21.124;2024-01-15T14:03:04;6.90;;;4.60;;
77524;SDS011;66638;50.050;21.124;2024-01-15T14:05:50;8.50;;;4.60;;
77524;SDS011;66638;50.050;21.124;2024-01-15T14:08:37;15.90;;;8.50;;
77524;SDS011;66638;50.050;21.124;2024-01-15T14:11:22;22.80;;;12.50;;
77524;SDS011;66638;50.050;21.124;2024-01-15T14:14:08;20.30;;;10.40;;
77524;SDS011;66638;50.050;21.124;2024-01-15T14:16:55;40.80;;;17.50;;
77524;SDS011;66638;50.050;21.124;2024-01-15T14:19:41;24.60;;;13.60;;
77524;SDS011;66638;50.050;21.124;2024-01-15T14:22:27;9.80;;;5.20;;
77524;SDS011;66638;50.050;21.124;2024-01-15T14:25:13;29.10;;;12.20;;
77524;SDS011;66638;50.050;21.124;2024-01-15T14:27:59;87.50;;;35.00;;
77524;SDS011;66638;50.050;21.124;2024-01-15T14:30:45;118.70;;;49.00;;
77524;SDS011;66638;50.050;21.124;2024-01-15T14:33:31;209.50;;;84.80;;
77524;SDS011;66638;50.050;21.124;2024-01-15T14:36:18;52.20;;;24.80;;
77524;SDS011;66638;50.050;21.124;2024-01-15T14:39:03;82.60;;;37.90;;
77524;SDS011;66638;50.050;21.124;2024-01-15T14:41:50;36.60;;;20.10;;
77524;SDS011;66638;50.050;21.124;2024-01-15T14:44:36;23.70;;;13.50;;
77524;SDS011;66638;50.050;21.124;2024-01-15T14:47:23;22.60;;;12.50;;
77524;SDS011;66638;50.050;21.124;2024-01-15T14:50:09;15.00;;;9.10;;
77524;SDS011;66638;50.050;21.124;2024-01-15T14:52:55;13.40;;;8.00;;
77524;SDS011;66638;50.050;21.124;2024-01-15T14:55:42;19.20;;;10.40;;
77524;SDS011;66638;50.050;21.124;2024-01-15T14:58:27;27.10;;;15.30;;
77524;SDS011;66638;50.050;21.124;2024-01-15T15:01:13;17.60;;;9.40;;
77524;SDS011;66638;50.050;21.124;2024-01-15T15:03:59;24.50;;;12.60;;
77524;SDS011;66638;50.050;21.124;2024-01-15T15:06:45;17.70;;;9.50;;
77524;SDS011;66638;50.050;21.124;2024-01-15T15:09:31;16.70;;;8.30;;
77524;SDS011;66638;50.050;21.124;2024-01-15T15:12:17;16.80;;;8.80;;
77524;SDS011;66638;50.050;21.124;2024-01-15T15:15:03;13.00;;;7.00;;
77524;SDS011;66638;50.050;21.124;2024-01-15T15:17:49;18.20;;;7.50;;
77524;SDS011;66638;50.050;21.124;2024-01-15T15:20:36;32.10;;;14.50;;
77524;SDS011;66638;50.050;21.124;2024-01-15T15:23:21;44.80;;;19.90;;
77524;SDS011;66638;50.050;21.124;2024-01-15T15:26:07;55.30;;;25.90;;
77524;SDS011;66638;50.050;21.124;2024-01-15T15:31:40;144.40;;;56.10;;
77524;SDS011;66638;50.050;21.124;2024-01-15T15:34:26;39.80;;;18.50;;
77524;SDS011;66638;50.050;21.124;2024-01-15T15:37:12;54.80;;;26.40;;
77524;SDS011;66638;50.050;21.124;2024-01-15T15:40:02;20.30;;;9.00;;
77524;SDS011;66638;50.050;21.124;2024-01-15T15:42:53;26.10;;;11.30;;
77524;SDS011;66638;50.050;21.124;2024-01-15T15:45:39;21.00;;;10.00;;
77524;SDS011;66638;50.050;21.124;2024-01-15T15:48:25;19.10;;;7.90;;
77524;SDS011;66638;50.050;21.124;2024-01-15T15:51:11;18.90;;;8.50;;
77524;SDS011;66638;50.050;21.124;2024-01-15T15:53:57;13.20;;;7.20;;
77524;SDS011;66638;50.050;21.124;2024-01-15T15:56:43;18.70;;;7.50;;
77524;SDS011;66638;50.050;21.124;2024-01-15T15:59:32;13.90;;;5.00;;
77524;SDS011;66638;50.050;21.124;2024-01-15T16:02:18;13.10;;;7.40;;
77524;SDS011;66638;50.050;21.124;2024-01-15T16:05:04;15.90;;;8.90;;
77524;SDS011;66638;50.050;21.124;2024-01-15T16:07:55;16.70;;;8.30;;
77524;SDS011;66638;50.050;21.124;2024-01-15T16:10:40;19.20;;;9.70;;
77524;SDS011;66638;50.050;21.124;2024-01-15T16:13:27;46.00;;;19.80;;
77524;SDS011;66638;50.050;21.124;2024-01-15T16:16:12;27.00;;;13.80;;
77524;SDS011;66638;50.050;21.124;2024-01-15T16:18:58;35.10;;;14.10;;
77524;SDS011;66638;50.050;21.124;2024-01-15T16:21:44;32.00;;;12.10;;
77524;SDS011;66638;50.050;21.124;2024-01-15T16:24:30;44.90;;;17.50;;
77524;SDS011;66638;50.050;21.124;2024-01-15T16:27:17;13.70;;;8.60;;
77524;SDS011;66638;50.050;21.124;2024-01-15T16:30:03;21.90;;;9.00;;
77524;SDS011;66638;50.050;21.124;2024-01-15T16:32:49;19.40;;;8.90;;
77524;SDS011;66638;50.050;21.124;2024-01-15T16:35:35;20.90;;;10.80;;
77524;SDS011;66638;50.050;21.124;2024-01-15T16:38:21;17.10;;;9.00;;